Time;durP1;ratioP1;P1;durP2;ratioP2;P2;SDS_P1;SDS_P2;PMS_P1;PMS_P2;Temp;Humidity;BMP_temperature;BMP_pressure;BME280_temperature;BME280_humidity;BME280_pressure;Samples;Min_cycle;Max_cycle;Signal;HPM_P1;HPM_P2
2023/07/17 00:00:33;;;;;;;18.33;6.13;;;;;;;;;;4922020;28;20467;-66
2023/07/17 00:02:59;;;;;;;15.63;5.72;;;;;;;;;;4920235;28;20035;-65
2023/07/17 00:05:25;;;;;;;17.98;5.70;;;;;;;;;;4909223;28;20043;-65
2023/07/17 00:07:51;;;;;;;16.60;5.70;;;;;;;;;;4921465;28;20344;-64
2023/07/17 00:10:18;;;;;;;17.75;6.60;;;;;;;;;;4921544;28;20310;-68
2023/07/17 00:12:44;;;;;;;16.42;6.18;;;;;;;;;;4902175;28;20269;-65
2023/07/17 00:15:10;;;;;;;20.90;7.25;;;;;;;;;;4920542;28;20126;-64
2023/07/17 00:17:37;;;;;;;16.20;6.00;;;;;;;;;;4921812;28;20035;-64
2023/07/17 00:20:06;;;;;;;18.70;5.88;;;;;;;;;;4900760;28;20921;-65
2023/07/17 00:22:34;;;;;;;16.92;5.18;;;;;;;;;;4922468;28;20019;-65
2023/07/17 00:25:00;;;;;;;15.43;5.90;;;;;;;;;;4919018;28;20804;-65
2023/07/17 00:27:26;;;;;;;17.63;5.60;;;;;;;;;;4904855;28;20031;-65
2023/07/17 00:29:53;;;;;;;15.23;5.00;;;;;;;;;;4900514;28;20035;-65
2023/07/17 00:32:20;;;;;;;21.02;5.78;;;;;;;;;;4920445;28;20991;-64
2023/07/17 00:34:46;;;;;;;20.77;5.88;;;;;;;;;;4907030;28;20118;-64
2023/07/17 00:37:12;;;;;;;19.08;5.47;;;;;;;;;;4909532;28;20042;-67
2023/07/17 00:39:38;;;;;;;17.70;6.05;;;;;;;;;;4925250;28;20027;-64
2023/07/17 00:42:05;;;;;;;21.85;7.13;;;;;;;;;;4923367;28;20367;-64
2023/07/17 00:44:31;;;;;;;17.67;5.75;;;;;;;;;;4923582;28;20446;-64
2023/07/17 00:46:58;;;;;;;18.65;6.32;;;;;;;;;;4905379;28;20062;-64
2023/07/17 00:49:26;;;;;;;19.40;5.60;;;;;;;;;;4923632;28;20049;-64
2023/07/17 00:51:53;;;;;;;19.85;5.63;;;;;;;;;;4920730;28;20070;-65
2023/07/17 00:54:19;;;;;;;19.63;5.78;;;;;;;;;;4906575;28;20237;-64
2023/07/17 00:56:46;;;;;;;16.73;5.05;;;;;;;;;;4906239;28;20323;-64
2023/07/17 00:59:13;;;;;;;18.30;6.63;;;;;;;;;;4906800;28;20027;-65
2023/07/17 01:01:40;;;;;;;19.55;6.50;;;;;;;;;;4926360;28;20118;-65
2023/07/17 01:04:07;;;;;;;21.58;6.18;;;;;;;;;;4921897;28;20324;-65
2023/07/17 01:06:38;;;;;;;25.30;7.28;;;;;;;;;;4926032;28;20031;-64
2023/07/17 01:09:04;;;;;;;22.17;6.88;;;;;;;;;;4922473;28;20038;-65
2023/07/17 01:11:31;;;;;;;18.48;6.63;;;;;;;;;;4933109;28;20030;-65
2023/07/17 01:13:57;;;;;;;20.50;6.15;;;;;;;;;;4926800;28;20035;-64
2023/07/17 01:16:23;;;;;;;19.52;6.53;;;;;;;;;;4937874;28;20505;-65
2023/07/17 01:18:49;;;;;;;20.05;6.32;;;;;;;;;;4930602;28;20031;-64
2023/07/17 01:21:17;;;;;;;25.30;6.53;;;;;;;;;;4913783;28;20490;-65
2023/07/17 01:23:44;;;;;;;18.77;6.53;;;;;;;;;;4933413;28;20317;-64
2023/07/17 01:26:17;;;;;;;17.80;6.10;;;;;;;;;;4915859;28;20662;-65
2023/07/17 01:28:44;;;;;;;21.13;6.53;;;;;;;;;;4928885;28;20566;-65
2023/07/17 01:31:10;;;;;;;19.25;6.90;;;;;;;;;;4912028;28;20266;-65
2023/07/17 01:33:36;;;;;;;20.40;6.53;;;;;;;;;;4909075;28;20085;-65
2023/07/17 01:36:04;;;;;;;18.40;6.88;;;;;;;;;;4932380;28;20591;-65
2023/07/17 01:38:30;;;;;;;18.83;6.47;;;;;;;;;;4937694;28;20043;-64
2023/07/17 01:40:56;;;;;;;18.83;7.20;;;;;;;;;;4927483;28;20032;-65
2023/07/17 01:43:23;;;;;;;18.83;7.25;;;;;;;;;;4936030;28;20442;-67
2023/07/17 01:45:49;;;;;;;19.92;7.00;;;;;;;;;;4931462;28;20102;-68
2023/07/17 01:48:17;;;;;;;21.23;7.53;;;;;;;;;;4932557;28;20039;-66
2023/07/17 01:50:43;;;;;;;18.95;7.50;;;;;;;;;;4933151;28;20552;-64
2023/07/17 01:53:10;;;;;;;18.65;6.75;;;;;;;;;;4932375;28;20568;-66
2023/07/17 01:55:36;;;;;;;18.70;6.70;;;;;;;;;;4915484;28;20493;-66
2023/07/17 01:58:02;;;;;;;23.27;7.13;;;;;;;;;;4930313;28;20046;-66
2023/07/17 02:00:28;;;;;;;15.75;6.18;;;;;;;;;;4933344;28;20564;-66
2023/07/17 02:02:54;;;;;;;21.70;6.90;;;;;;;;;;4932235;28;20038;-66
2023/07/17 02:05:20;;;;;;;16.20;6.28;;;;;;;;;;4936359;28;20050;-66
2023/07/17 02:07:47;;;;;;;21.10;6.63;;;;;;;;;;4915358;28;20042;-65
2023/07/17 02:10:13;;;;;;;21.75;7.10;;;;;;;;;;4917553;28;20035;-66
2023/07/17 02:12:39;;;;;;;16.48;5.72;;;;;;;;;;4907231;28;20611;-66
2023/07/17 02:15:06;;;;;;;18.02;5.70;;;;;;;;;;4928660;28;20031;-66
2023/07/17 02:17:33;;;;;;;18.00;6.38;;;;;;;;;;4936789;28;20125;-64
2023/07/17 02:19:59;;;;;;;18.38;5.78;;;;;;;;;;4928245;28;20067;-64
2023/07/17 02:22:26;;;;;;;18.88;6.40;;;;;;;;;;4935099;28;20031;-64
2023/07/17 02:24:52;;;;;;;15.18;5.35;;;;;;;;;;4916515;28;20046;-66
2023/07/17 02:27:18;;;;;;;15.07;5.35;;;;;;;;;;4917653;28;20565;-66
2023/07/17 02:29:47;;;;;;;15.18;5.38;;;;;;;;;;4935087;28;20334;-66
2023/07/17 02:32:13;;;;;;;21.52;6.20;;;;;;;;;;4932026;28;20522;-66
2023/07/17 02:34:39;;;;;;;17.88;5.93;;;;;;;;;;4936085;28;20675;-66
2023/07/17 02:37:10;;;;;;;16.75;5.97;;;;;;;;;;4929819;28;20954;-66
2023/07/17 02:39:36;;;;;;;16.63;5.13;;;;;;;;;;4934192;28;20035;-66
2023/07/17 02:42:02;;;;;;;13.50;4.93;;;;;;;;;;4925800;28;20030;-66
2023/07/17 02:44:28;;;;;;;17.25;5.80;;;;;;;;;;4913524;28;20030;-66
2023/07/17 02:46:54;;;;;;;16.52;5.40;;;;;;;;;;4927204;28;20491;-66
2023/07/17 02:49:20;;;;;;;17.45;5.50;;;;;;;;;;4915786;28;20573;-66
2023/07/17 02:51:47;;;;;;;16.00;5.57;;;;;;;;;;4928731;28;20039;-65
2023/07/17 02:54:13;;;;;;;14.38;5.28;;;;;;;;;;4936203;28;20066;-65
2023/07/17 02:56:39;;;;;;;13.43;5.03;;;;;;;;;;4919750;28;20182;-65
2023/07/17 02:59:05;;;;;;;16.50;5.65;;;;;;;;;;4927883;28;20039;-65
2023/07/17 03:01:31;;;;;;;15.02;5.90;;;;;;;;;;4934834;28;20038;-66
2023/07/17 03:03:57;;;;;;;13.75;5.22;;;;;;;;;;4914617;28;20034;-66
2023/07/17 03:06:23;;;;;;;17.58;5.18;;;;;;;;;;4936365;28;20122;-65
2023/07/17 03:08:50;;;;;;;17.42;5.70;;;;;;;;;;4932147;28;20435;-64
2023/07/17 03:11:16;;;;;;;21.15;6.88;;;;;;;;;;4937146;28;20074;-64
2023/07/17 03:13:43;;;;;;;19.52;6.80;;;;;;;;;;4929395;28;20199;-65
2023/07/17 03:16:10;;;;;;;16.98;6.57;;;;;;;;;;4913643;28;20651;-65
2023/07/17 03:18:37;;;;;;;23.08;7.20;;;;;;;;;;4933311;28;20027;-65
2023/07/17 03:21:04;;;;;;;18.17;6.63;;;;;;;;;;4925313;28;20047;-65
2023/07/17 03:23:30;;;;;;;16.67;6.32;;;;;;;;;;4937118;28;20022;-65
2023/07/17 03:25:57;;;;;;;16.42;6.38;;;;;;;;;;4930507;28;20049;-65
2023/07/17 03:28:23;;;;;;;21.33;6.30;;;;;;;;;;4930188;28;20031;-65
2023/07/17 03:30:51;;;;;;;16.38;6.65;;;;;;;;;;4932685;28;20099;-64
2023/07/17 03:33:17;;;;;;;19.80;6.25;;;;;;;;;;4914934;28;20027;-65
2023/07/17 03:35:44;;;;;;;14.95;5.88;;;;;;;;;;4935859;28;20498;-65
2023/07/17 03:38:10;;;;;;;19.52;6.22;;;;;;;;;;4932842;28;20470;-66
2023/07/17 03:40:37;;;;;;;20.55;6.43;;;;;;;;;;4916664;28;20122;-65
2023/07/17 03:43:04;;;;;;;14.63;5.68;;;;;;;;;;4914658;28;20444;-65
2023/07/17 03:45:32;;;;;;;20.92;6.78;;;;;;;;;;4915516;28;20332;-65
2023/07/17 03:47:58;;;;;;;19.17;6.15;;;;;;;;;;4908537;28;20050;-64
2023/07/17 03:50:25;;;;;;;18.70;6.70;;;;;;;;;;4936812;28;20070;-65
2023/07/17 03:52:51;;;;;;;22.25;6.72;;;;;;;;;;4931421;28;20541;-65
2023/07/17 03:55:21;;;;;;;17.55;6.13;;;;;;;;;;4929634;28;20035;-65
2023/07/17 03:57:48;;;;;;;15.68;6.18;;;;;;;;;;4931231;28;20367;-64
2023/07/17 04:00:15;;;;;;;21.58;6.82;;;;;;;;;;4931248;28;20515;-65
2023/07/17 04:02:42;;;;;;;14.82;5.47;;;;;;;;;;4928070;28;20091;-64
2023/07/17 04:05:08;;;;;;;20.73;6.63;;;;;;;;;;4930737;28;20063;-64
2023/07/17 04:07:35;;;;;;;18.42;6.60;;;;;;;;;;4916805;28;20213;-65
2023/07/17 04:10:01;;;;;;;21.90;6.88;;;;;;;;;;4910452;28;20043;-65
2023/07/17 04:12:27;;;;;;;22.75;6.88;;;;;;;;;;4931210;28;20027;-65
2023/07/17 04:14:54;;;;;;;17.33;6.30;;;;;;;;;;4925372;28;20130;-65
2023/07/17 04:17:20;;;;;;;20.45;6.53;;;;;;;;;;4932906;28;20611;-65
2023/07/17 04:19:46;;;;;;;19.70;5.57;;;;;;;;;;4933838;28;20042;-64
2023/07/17 04:22:13;;;;;;;19.17;6.28;;;;;;;;;;4932578;28;20126;-64
2023/07/17 04:24:40;;;;;;;19.67;6.45;;;;;;;;;;4910121;28;20047;-65
2023/07/17 04:27:06;;;;;;;21.30;6.30;;;;;;;;;;4911813;28;21378;-64
2023/07/17 04:29:32;;;;;;;19.35;6.22;;;;;;;;;;4928083;28;20130;-64
2023/07/17 04:31:59;;;;;;;20.90;6.15;;;;;;;;;;4927451;28;20057;-64
2023/07/17 04:34:25;;;;;;;18.25;6.63;;;;;;;;;;4930746;28;20114;-65
2023/07/17 04:36:52;;;;;;;18.35;6.22;;;;;;;;;;4929474;28;20467;-65
2023/07/17 04:39:18;;;;;;;22.25;7.05;;;;;;;;;;4928867;28;20042;-65
2023/07/17 04:41:45;;;;;;;19.60;6.47;;;;;;;;;;4928601;28;20518;-64
2023/07/17 04:44:12;;;;;;;22.27;6.55;;;;;;;;;;4911208;28;20042;-64
2023/07/17 04:46:38;;;;;;;17.15;5.93;;;;;;;;;;4925407;28;20027;-64
2023/07/17 04:49:04;;;;;;;20.17;6.63;;;;;;;;;;4924184;28;20603;-65
2023/07/17 04:51:31;;;;;;;20.60;6.78;;;;;;;;;;4914191;29;20477;-66
2023/07/17 04:53:57;;;;;;;23.80;7.07;;;;;;;;;;4907228;28;20623;-66
2023/07/17 04:56:23;;;;;;;24.65;7.25;;;;;;;;;;4932787;28;20105;-66
2023/07/17 04:58:49;;;;;;;20.77;7.80;;;;;;;;;;4926153;28;20191;-66
2023/07/17 05:01:16;;;;;;;18.63;6.45;;;;;;;;;;4912310;28;20544;-66
2023/07/17 05:03:44;;;;;;;17.73;5.68;;;;;;;;;;4911141;28;20030;-66
2023/07/17 05:06:10;;;;;;;20.67;6.60;;;;;;;;;;4926150;28;20050;-66
2023/07/17 05:08:37;;;;;;;16.63;6.30;;;;;;;;;;4931984;28;20110;-66
2023/07/17 05:11:04;;;;;;;17.42;6.10;;;;;;;;;;4909782;28;20045;-66
2023/07/17 05:13:31;;;;;;;18.38;5.72;;;;;;;;;;4929048;28;20265;-63
2023/07/17 05:15:57;;;;;;;20.38;6.35;;;;;;;;;;4926817;28;20477;-64
2023/07/17 05:18:24;;;;;;;21.30;7.00;;;;;;;;;;4929488;28;20472;-64
2023/07/17 05:20:51;;;;;;;22.50;5.80;;;;;;;;;;4912669;28;20440;-64
2023/07/17 05:23:19;;;;;;;18.90;5.68;;;;;;;;;;4917413;28;20035;-65
2023/07/17 05:25:53;;;;;;;17.08;6.18;;;;;;;;;;4935857;28;20108;-66
2023/07/17 05:28:19;;;;;;;19.65;5.28;;;;;;;;;;4931711;28;20035;-64
2023/07/17 05:30:45;;;;;;;18.50;6.13;;;;;;;;;;4932832;28;20441;-64
2023/07/17 05:33:14;;;;;;;14.48;5.28;;;;;;;;;;4912317;28;20035;-66
2023/07/17 05:35:40;;;;;;;18.23;6.10;;;;;;;;;;4934695;28;20028;-64
2023/07/17 05:38:07;;;;;;;16.42;5.60;;;;;;;;;;4927971;28;20655;-64
2023/07/17 05:40:36;;;;;;;19.40;5.25;;;;;;;;;;4910357;28;20449;-64
2023/07/17 05:43:03;;;;;;;17.30;6.40;;;;;;;;;;4929630;28;20031;-64
2023/07/17 05:45:30;;;;;;;14.27;5.68;;;;;;;;;;4916529;28;20035;-64
2023/07/17 05:47:56;;;;;;;16.65;5.70;;;;;;;;;;4927000;28;20051;-64
2023/07/17 05:50:23;;;;;;;17.55;5.32;;;;;;;;;;4929600;28;20043;-66
2023/07/17 05:52:50;;;;;;;18.70;5.60;;;;;;;;;;4926838;28;20030;-66
2023/07/17 05:55:16;;;;;;;14.38;4.93;;;;;;;;;;4911983;29;20143;-66
2023/07/17 05:57:43;;;;;;;13.77;4.68;;;;;;;;;;4935310;28;20163;-66
2023/07/17 06:00:12;;;;;;;25.55;6.72;;;;;;;;;;4924977;28;20468;-66
2023/07/17 06:02:39;;;;;;;21.60;6.35;;;;;;;;;;4931772;28;20374;-66
2023/07/17 06:05:05;;;;;;;18.92;6.57;;;;;;;;;;4913689;28;20066;-66
2023/07/17 06:07:32;;;;;;;18.85;6.53;;;;;;;;;;4914865;28;20683;-66
2023/07/17 06:09:59;;;;;;;20.70;6.43;;;;;;;;;;4930009;28;20452;-65
2023/07/17 06:12:25;;;;;;;19.15;6.45;;;;;;;;;;4935557;28;20043;-66
2023/07/17 06:14:52;;;;;;;16.92;5.68;;;;;;;;;;4910978;28;20457;-66
2023/07/17 06:17:18;;;;;;;17.13;5.78;;;;;;;;;;4929823;28;20027;-65
2023/07/17 06:19:44;;;;;;;18.30;5.70;;;;;;;;;;4933406;28;20253;-66
2023/07/17 06:22:11;;;;;;;19.73;5.65;;;;;;;;;;4929164;28;20023;-66
2023/07/17 06:24:37;;;;;;;18.92;6.10;;;;;;;;;;4932063;28;20435;-65
2023/07/17 06:27:03;;;;;;;24.75;6.60;;;;;;;;;;4926721;28;20461;-66
2023/07/17 06:29:29;;;;;;;19.65;6.28;;;;;;;;;;4933730;28;20046;-65
2023/07/17 06:31:56;;;;;;;14.63;5.35;;;;;;;;;;4926941;28;20027;-66
2023/07/17 06:34:22;;;;;;;19.30;5.38;;;;;;;;;;4931667;28;20035;-66
2023/07/17 06:36:50;;;;;;;17.27;5.18;;;;;;;;;;4911556;28;20636;-65
2023/07/17 06:39:16;;;;;;;22.90;5.82;;;;;;;;;;4929474;28;20020;-66
2023/07/17 06:41:42;;;;;;;20.13;5.70;;;;;;;;;;4934915;28;20023;-66
2023/07/17 06:44:09;;;;;;;17.90;5.15;;;;;;;;;;4929308;28;20117;-66
2023/07/17 06:46:35;;;;;;;18.58;5.28;;;;;;;;;;4934237;28;20051;-65
2023/07/17 06:49:01;;;;;;;19.05;5.68;;;;;;;;;;4927584;28;20070;-65
2023/07/17 06:51:27;;;;;;;18.38;5.70;;;;;;;;;;4929474;28;20145;-65
2023/07/17 06:53:53;;;;;;;19.63;5.90;;;;;;;;;;4925655;28;20399;-65
2023/07/17 06:56:21;;;;;;;16.15;5.15;;;;;;;;;;4936355;28;20395;-65
2023/07/17 06:58:47;;;;;;;20.40;5.22;;;;;;;;;;4908905;28;20135;-65
2023/07/17 07:01:14;;;;;;;19.63;5.90;;;;;;;;;;4931501;28;20407;-65
2023/07/17 07:03:42;;;;;;;21.23;5.35;;;;;;;;;;4908552;28;20073;-65
2023/07/17 07:06:09;;;;;;;19.20;6.47;;;;;;;;;;4926312;28;20321;-65
2023/07/17 07:08:35;;;;;;;17.92;5.28;;;;;;;;;;4928453;28;20122;-65
2023/07/17 07:11:03;;;;;;;17.02;4.93;;;;;;;;;;4917202;28;20196;-66
2023/07/17 07:13:30;;;;;;;20.58;5.90;;;;;;;;;;4914218;29;20034;-65
2023/07/17 07:15:56;;;;;;;15.05;5.38;;;;;;;;;;4909998;28;20587;-66
2023/07/17 07:18:22;;;;;;;17.23;5.72;;;;;;;;;;4927763;28;20035;-66
2023/07/17 07:20:53;;;;;;;14.65;5.93;;;;;;;;;;4931968;28;20320;-65
2023/07/17 07:23:19;;;;;;;19.65;6.70;;;;;;;;;;4928992;28;20027;-66
2023/07/17 07:25:45;;;;;;;19.45;6.97;;;;;;;;;;4930663;28;20063;-65
2023/07/17 07:28:12;;;;;;;18.55;6.65;;;;;;;;;;4926534;28;20035;-66
2023/07/17 07:30:38;;;;;;;18.40;6.65;;;;;;;;;;4913592;28;20396;-66
2023/07/17 07:33:04;;;;;;;17.92;6.22;;;;;;;;;;4908545;28;20031;-66
2023/07/17 07:35:30;;;;;;;21.20;5.95;;;;;;;;;;4926573;28;20129;-66
2023/07/17 07:37:57;;;;;;;19.13;6.32;;;;;;;;;;4921331;28;20114;-66
2023/07/17 07:40:25;;;;;;;17.70;5.45;;;;;;;;;;4930886;28;20482;-66
2023/07/17 07:42:52;;;;;;;17.05;6.00;;;;;;;;;;4924760;28;20043;-66
2023/07/17 07:45:19;;;;;;;18.02;6.40;;;;;;;;;;4928095;28;20035;-66
2023/07/17 07:47:45;;;;;;;16.02;6.50;;;;;;;;;;4929696;28;20636;-66
2023/07/17 07:50:12;;;;;;;18.33;5.97;;;;;;;;;;4912952;28;20046;-66
2023/07/17 07:52:38;;;;;;;13.07;5.25;;;;;;;;;;4931699;28;20031;-66
2023/07/17 07:55:04;;;;;;;15.18;5.85;;;;;;;;;;4925338;28;20094;-66
2023/07/17 07:57:30;;;;;;;16.77;5.50;;;;;;;;;;4911698;28;20066;-65
2023/07/17 07:59:56;;;;;;;20.92;5.30;;;;;;;;;;4925222;28;20039;-66
2023/07/17 08:02:23;;;;;;;17.73;4.82;;;;;;;;;;4913576;28;20030;-65
2023/07/17 08:04:50;;;;;;;15.70;5.28;;;;;;;;;;4928154;28;20058;-66
2023/07/17 08:07:16;;;;;;;16.65;5.30;;;;;;;;;;4929995;28;20038;-66
2023/07/17 08:09:42;;;;;;;14.93;5.03;;;;;;;;;;4913342;28;20038;-66
2023/07/17 08:12:08;;;;;;;16.55;5.40;;;;;;;;;;4923559;28;20381;-67
2023/07/17 08:14:34;;;;;;;18.08;5.18;;;;;;;;;;4905099;28;20513;-66
2023/07/17 08:17:01;;;;;;;18.52;5.70;;;;;;;;;;4923220;28;20039;-66
2023/07/17 08:19:27;;;;;;;21.30;4.95;;;;;;;;;;4910554;28;20554;-66
2023/07/17 08:21:53;;;;;;;14.25;5.10;;;;;;;;;;4920256;28;20486;-66
2023/07/17 08:24:19;;;;;;;17.73;5.40;;;;;;;;;;4910483;28;20087;-66
2023/07/17 08:26:45;;;;;;;12.95;4.47;;;;;;;;;;4930902;28;20109;-66
2023/07/17 08:29:12;;;;;;;15.23;4.72;;;;;;;;;;4923314;28;20023;-65
2023/07/17 08:31:38;;;;;;;13.82;4.78;;;;;;;;;;4933267;28;20043;-66
2023/07/17 08:34:04;;;;;;;16.98;4.88;;;;;;;;;;4923087;28;20058;-66
2023/07/17 08:36:31;;;;;;;15.73;5.43;;;;;;;;;;4909777;28;20434;-66
2023/07/17 08:38:58;;;;;;;15.43;5.20;;;;;;;;;;4925771;28;20031;-65
2023/07/17 08:41:25;;;;;;;17.48;4.70;;;;;;;;;;4930520;28;20280;-66
2023/07/17 08:43:51;;;;;;;16.15;4.95;;;;;;;;;;4921655;28;20023;-66
2023/07/17 08:46:17;;;;;;;18.80;5.55;;;;;;;;;;4928653;28;20031;-66
2023/07/17 08:48:44;;;;;;;14.70;4.18;;;;;;;;;;4927186;28;20043;-66
2023/07/17 08:51:13;;;;;;;16.23;5.00;;;;;;;;;;4926486;28;20143;-66
2023/07/17 08:53:40;;;;;;;15.52;5.32;;;;;;;;;;4927248;28;20902;-66
2023/07/17 08:56:08;;;;;;;20.02;5.57;;;;;;;;;;4924695;28;20681;-66
2023/07/17 08:58:35;;;;;;;17.85;5.28;;;;;;;;;;4928795;28;20038;-66
2023/07/17 09:01:02;;;;;;;16.85;5.45;;;;;;;;;;4927095;28;20031;-66
2023/07/17 09:03:31;;;;;;;18.27;5.13;;;;;;;;;;4916970;28;20086;-66
2023/07/17 09:05:57;;;;;;;17.90;5.15;;;;;;;;;;4910022;28;20039;-65
2023/07/17 09:08:24;;;;;;;19.23;5.80;;;;;;;;;;4932488;28;20023;-65
2023/07/17 09:11:04;;;;;;;17.73;5.47;;;;;;;;;;4925840;28;20303;-65
2023/07/17 09:13:40;;;;;;;15.75;4.22;;;;;;;;;;4931694;28;20035;-66
2023/07/17 09:16:17;;;;;;;17.75;5.10;;;;;;;;;;4927497;28;21975;-65
2023/07/17 09:18:43;;;;;;;19.85;5.72;;;;;;;;;;4934566;28;20026;-66
2023/07/17 09:21:16;;;;;;;17.92;7.00;;;;;;;;;;4927255;28;20042;-66
2023/07/17 09:23:47;;;;;;;21.17;6.93;;;;;;;;;;4911912;28;20087;-65
2023/07/17 09:26:14;;;;;;;15.80;5.30;;;;;;;;;;4908686;28;20576;-65
2023/07/17 09:28:48;;;;;;;16.17;5.30;;;;;;;;;;4934414;28;20054;-65
2023/07/17 09:31:15;;;;;;;19.85;6.03;;;;;;;;;;4917079;28;20485;-66
2023/07/17 09:33:42;;;;;;;17.67;5.15;;;;;;;;;;4932533;28;20034;-65
2023/07/17 09:36:12;;;;;;;19.60;5.78;;;;;;;;;;4925897;28;20071;-65
2023/07/17 09:38:38;;;;;;;17.38;5.40;;;;;;;;;;4930661;28;20034;-65
2023/07/17 09:41:17;;;;;;;16.90;5.47;;;;;;;;;;4925938;28;20090;-65
2023/07/17 09:43:51;;;;;;;15.27;5.05;;;;;;;;;;4935396;28;20802;-64
2023/07/17 09:46:17;;;;;;;17.45;5.38;;;;;;;;;;4931904;28;21096;-65
2023/07/17 09:48:43;;;;;;;13.30;4.72;;;;;;;;;;4932777;28;20188;-65
2023/07/17 09:51:10;;;;;;;20.13;5.35;;;;;;;;;;4926947;28;20047;-65
2023/07/17 09:53:37;;;;;;;19.25;4.88;;;;;;;;;;4928488;28;20038;-65
2023/07/17 09:56:04;;;;;;;18.10;5.32;;;;;;;;;;4929481;28;20042;-65
2023/07/17 09:58:31;;;;;;;19.45;5.93;;;;;;;;;;4928147;28;20110;-65
2023/07/17 10:00:58;;;;;;;18.80;5.82;;;;;;;;;;4927630;28;20046;-66
2023/07/17 10:03:24;;;;;;;15.60;5.50;;;;;;;;;;4911851;28;20110;-66
2023/07/17 10:05:52;;;;;;;18.67;5.47;;;;;;;;;;4924474;28;20340;-65
2023/07/17 10:08:18;;;;;;;16.60;5.07;;;;;;;;;;4928852;28;20141;-65
2023/07/17 10:10:45;;;;;;;17.50;5.25;;;;;;;;;;4932449;28;20493;-66
2023/07/17 10:13:11;;;;;;;16.70;4.80;;;;;;;;;;4924148;28;20051;-66
2023/07/17 10:15:38;;;;;;;15.82;5.20;;;;;;;;;;4913482;28;20035;-66
2023/07/17 10:18:08;;;;;;;16.67;5.15;;;;;;;;;;4927356;28;20166;-66
2023/07/17 10:20:34;;;;;;;17.70;5.50;;;;;;;;;;4927500;28;20098;-66
2023/07/17 10:23:03;;;;;;;16.75;5.97;;;;;;;;;;4926481;28;20039;-65
2023/07/17 10:25:29;;;;;;;14.30;4.75;;;;;;;;;;4911778;28;20066;-66
2023/07/17 10:28:00;;;;;;;25.38;5.65;;;;;;;;;;4910598;28;20035;-65
2023/07/17 10:30:30;;;;;;;16.05;4.72;;;;;;;;;;4928621;28;20553;-66
2023/07/17 10:33:13;;;;;;;18.33;5.32;;;;;;;;;;4913407;28;20081;-65
2023/07/17 10:35:46;;;;;;;15.55;4.97;;;;;;;;;;4923934;28;20299;-65
2023/07/17 10:38:14;;;;;;;16.70;4.97;;;;;;;;;;4909188;28;20031;-66
2023/07/17 10:40:40;;;;;;;17.95;5.88;;;;;;;;;;4913907;28;20031;-66
2023/07/17 10:43:13;;;;;;;19.55;5.40;;;;;;;;;;4921045;28;21272;-65
2023/07/17 10:45:40;;;;;;;16.05;5.90;;;;;;;;;;4926411;28;20455;-66
2023/07/17 10:48:06;;;;;;;17.83;5.57;;;;;;;;;;4925231;28;20037;-66
2023/07/17 10:50:32;;;;;;;17.95;5.07;;;;;;;;;;4923875;28;20515;-65
2023/07/17 10:53:03;;;;;;;16.80;5.05;;;;;;;;;;4924227;28;20035;-66
2023/07/17 10:55:29;;;;;;;16.08;5.22;;;;;;;;;;4929952;28;20088;-65
2023/07/17 10:57:57;;;;;;;20.05;5.68;;;;;;;;;;4921331;28;20027;-65
2023/07/17 11:00:23;;;;;;;19.20;5.88;;;;;;;;;;4929284;28;20044;-65
2023/07/17 11:02:49;;;;;;;16.92;5.53;;;;;;;;;;4925499;28;20459;-65
2023/07/17 11:05:15;;;;;;;17.80;5.63;;;;;;;;;;4907771;28;20059;-65
2023/07/17 11:07:42;;;;;;;18.02;5.25;;;;;;;;;;4925305;28;20036;-66
2023/07/17 11:10:12;;;;;;;16.63;5.50;;;;;;;;;;4923518;28;20028;-65
2023/07/17 11:12:39;;;;;;;18.88;5.03;;;;;;;;;;4910261;28;20035;-65
2023/07/17 11:15:13;;;;;;;15.23;5.15;;;;;;;;;;4920561;28;20462;-65
2023/07/17 11:17:39;;;;;;;17.20;5.65;;;;;;;;;;4923402;28;20109;-66
2023/07/17 11:20:05;;;;;;;21.40;6.05;;;;;;;;;;4906009;28;20679;-66
2023/07/17 11:22:32;;;;;;;15.93;5.38;;;;;;;;;;4912205;28;20148;-65
2023/07/17 11:24:58;;;;;;;18.48;5.47;;;;;;;;;;4905847;28;20035;-65
2023/07/17 11:27:25;;;;;;;16.40;4.65;;;;;;;;;;4910737;28;20307;-65
2023/07/17 11:29:51;;;;;;;18.45;5.80;;;;;;;;;;4903658;28;20176;-67
2023/07/17 11:32:21;;;;;;;16.02;5.50;;;;;;;;;;4913358;28;20466;-67
2023/07/17 11:34:54;;;;;;;16.50;5.28;;;;;;;;;;4908144;28;20027;-67
2023/07/17 11:37:49;;;;;;;15.75;5.05;;;;;;;;;;4908189;28;20070;-67
2023/07/17 11:40:15;;;;;;;16.33;5.18;;;;;;;;;;4895740;28;20039;-67
2023/07/17 11:42:53;;;;;;;22.23;5.63;;;;;;;;;;4912029;28;20086;-65
2023/07/17 11:45:25;;;;;;;18.20;5.45;;;;;;;;;;4932558;28;20260;-65
2023/07/17 11:47:53;;;;;;;15.65;4.90;;;;;;;;;;4926715;28;20027;-65
2023/07/17 11:50:20;;;;;;;14.48;4.68;;;;;;;;;;4933008;28;20414;-66
2023/07/17 11:52:46;;;;;;;15.65;4.80;;;;;;;;;;4913253;28;20046;-65
2023/07/17 11:55:12;;;;;;;15.38;4.95;;;;;;;;;;4914373;28;20040;-66
2023/07/17 11:57:38;;;;;;;15.13;5.13;;;;;;;;;;4933122;28;20034;-66
2023/07/17 12:00:06;;;;;;;18.52;5.28;;;;;;;;;;4928996;28;20022;-66
2023/07/17 12:02:32;;;;;;;15.90;5.35;;;;;;;;;;4934443;28;20027;-67
2023/07/17 12:05:02;;;;;;;15.90;5.15;;;;;;;;;;4931503;28;20050;-65
2023/07/17 12:07:28;;;;;;;17.02;4.97;;;;;;;;;;4933838;28;20551;-66
2023/07/17 12:09:54;;;;;;;18.65;5.15;;;;;;;;;;4930903;28;20151;-67
2023/07/17 12:12:21;;;;;;;17.65;5.38;;;;;;;;;;4935003;28;20114;-65
2023/07/17 12:14:47;;;;;;;19.88;5.82;;;;;;;;;;4933355;28;20079;-66
2023/07/17 12:17:13;;;;;;;15.40;4.93;;;;;;;;;;4918586;28;20065;-68
2023/07/17 12:19:40;;;;;;;14.43;4.82;;;;;;;;;;4932087;28;20110;-66
2023/07/17 12:22:06;;;;;;;14.35;4.53;;;;;;;;;;4929655;28;22347;-66
2023/07/17 12:24:32;;;;;;;14.15;4.70;;;;;;;;;;4915242;28;20512;-66
2023/07/17 12:26:58;;;;;;;14.30;4.97;;;;;;;;;;4931750;28;20486;-67
2023/07/17 12:29:25;;;;;;;14.00;4.80;;;;;;;;;;4935191;28;20674;-66
2023/07/17 12:31:51;;;;;;;16.95;5.10;;;;;;;;;;4931453;28;20058;-66
2023/07/17 12:34:17;;;;;;;18.05;5.30;;;;;;;;;;4943544;28;20168;-66
2023/07/17 12:36:43;;;;;;;15.95;5.13;;;;;;;;;;4919283;28;20614;-66
2023/07/17 12:39:16;;;;;;;16.50;5.05;;;;;;;;;;4931784;28;20647;-66
2023/07/17 12:41:43;;;;;;;15.80;5.40;;;;;;;;;;4936803;28;20036;-66
2023/07/17 12:44:09;;;;;;;16.35;5.03;;;;;;;;;;4937866;28;20042;-66
2023/07/17 12:46:35;;;;;;;16.13;5.40;;;;;;;;;;4918675;28;20552;-66
2023/07/17 12:49:01;;;;;;;21.63;5.22;;;;;;;;;;4933862;28;20516;-64
2023/07/17 12:51:27;;;;;;;17.20;5.07;;;;;;;;;;4921094;28;20575;-66
2023/07/17 12:53:54;;;;;;;16.85;4.82;;;;;;;;;;4932618;28;20541;-66
2023/07/17 12:56:20;;;;;;;18.08;5.13;;;;;;;;;;4918565;28;20047;-66
2023/07/17 12:58:46;;;;;;;13.60;4.50;;;;;;;;;;4923140;28;20595;-67
2023/07/17 13:01:13;;;;;;;17.33;4.97;;;;;;;;;;4937888;28;20031;-67
2023/07/17 13:03:39;;;;;;;15.50;5.00;;;;;;;;;;4940979;28;20034;-67
2023/07/17 13:06:05;;;;;;;15.55;4.47;;;;;;;;;;4933680;28;20038;-67
2023/07/17 13:08:31;;;;;;;15.40;4.63;;;;;;;;;;4920530;28;20149;-67
2023/07/17 13:10:57;;;;;;;17.05;5.25;;;;;;;;;;4935849;28;20168;-67
2023/07/17 13:13:23;;;;;;;19.63;4.78;;;;;;;;;;4918367;28;20207;-67
2023/07/17 13:15:50;;;;;;;19.73;5.13;;;;;;;;;;4933114;28;20038;-67
2023/07/17 13:18:16;;;;;;;17.15;4.80;;;;;;;;;;4923210;28;20054;-67
2023/07/17 13:20:42;;;;;;;16.55;4.82;;;;;;;;;;4922302;28;20032;-67
2023/07/17 13:23:08;;;;;;;15.55;4.75;;;;;;;;;;4931048;28;20596;-67
2023/07/17 13:25:34;;;;;;;21.08;4.80;;;;;;;;;;4935673;28;20386;-67
2023/07/17 13:28:00;;;;;;;17.92;5.47;;;;;;;;;;4928250;28;20043;-67
2023/07/17 13:30:26;;;;;;;17.50;4.85;;;;;;;;;;4934826;28;20039;-67
2023/07/17 13:32:53;;;;;;;13.20;4.63;;;;;;;;;;4927333;28;20042;-67
2023/07/17 13:35:19;;;;;;;14.85;4.75;;;;;;;;;;4933145;28;20041;-67
2023/07/17 13:37:45;;;;;;;15.88;4.95;;;;;;;;;;4931637;28;20031;-67
2023/07/17 13:40:11;;;;;;;17.73;4.90;;;;;;;;;;4928710;28;20069;-66
2023/07/17 13:42:37;;;;;;;14.88;5.00;;;;;;;;;;4933205;28;20396;-67
2023/07/17 13:45:04;;;;;;;15.15;4.68;;;;;;;;;;4934723;28;20561;-66
2023/07/17 13:47:30;;;;;;;15.27;4.90;;;;;;;;;;4932497;28;20042;-67
2023/07/17 13:49:56;;;;;;;15.80;5.20;;;;;;;;;;4915826;28;20123;-66
2023/07/17 13:52:22;;;;;;;17.92;4.70;;;;;;;;;;4930920;28;20027;-67
2023/07/17 13:54:48;;;;;;;14.95;4.72;;;;;;;;;;4920288;28;20564;-67
2023/07/17 13:57:15;;;;;;;13.30;4.43;;;;;;;;;;4915114;28;20031;-67
2023/07/17 13:59:42;;;;;;;15.18;4.60;;;;;;;;;;4933283;28;20411;-67
2023/07/17 14:02:08;;;;;;;14.68;5.22;;;;;;;;;;4931054;28;20061;-66
2023/07/17 14:04:34;;;;;;;14.60;4.75;;;;;;;;;;4940701;28;20034;-65
2023/07/17 14:07:00;;;;;;;14.80;4.57;;;;;;;;;;4928860;28;20048;-65
2023/07/17 14:09:26;;;;;;;19.08;5.15;;;;;;;;;;4935360;28;20030;-65
2023/07/17 14:11:53;;;;;;;14.18;5.05;;;;;;;;;;4928947;28;20430;-65
2023/07/17 14:14:19;;;;;;;14.98;4.90;;;;;;;;;;4933221;28;20023;-66
2023/07/17 14:16:45;;;;;;;13.60;4.75;;;;;;;;;;4915649;28;20437;-66
2023/07/17 14:19:11;;;;;;;14.82;4.95;;;;;;;;;;4931341;28;20035;-66
2023/07/17 14:21:37;;;;;;;17.65;5.20;;;;;;;;;;4930176;28;20082;-67
2023/07/17 14:24:03;;;;;;;12.20;4.70;;;;;;;;;;4930644;28;20644;-66
2023/07/17 14:26:30;;;;;;;13.98;4.53;;;;;;;;;;4936199;28;20560;-66
2023/07/17 14:28:56;;;;;;;12.30;4.32;;;;;;;;;;4935196;28;20605;-66